Time;durP1;ratioP1;P1;durP2;ratioP2;P2;SDS_P1;SDS_P2;PMS_P1;PMS_P2;Temp;Humidity;BMP_temperature;BMP_pressure;BME280_temperature;BME280_humidity;BME280_pressure;Samples;Min_cycle;Max_cycle;Signal;HPM_P1;HPM_P2
2022/04/04 00:00:10;;;;;;;9.87;5.77;;;;;;;;;;5116263;28;20196;-92
2022/04/04 00:02:38;;;;;;;8.13;5.53;;;;;;;;;;5116233;28;20207;-92
2022/04/04 00:05:06;;;;;;;7.90;6.17;;;;;;;;;;5116396;28;20220;-91
2022/04/04 00:07:33;;;;;;;9.00;5.43;;;;;;;;;;5115791;28;20264;-91
2022/04/04 00:10:01;;;;;;;6.77;5.33;;;;;;;;;;5116051;28;20269;-91
2022/04/04 00:12:29;;;;;;;8.83;5.80;;;;;;;;;;5115019;28;20196;-91
2022/04/04 00:14:57;;;;;;;9.70;6.00;;;;;;;;;;5115795;28;20215;-91
2022/04/04 00:17:24;;;;;;;5.47;4.53;;;;;;;;;;5116423;28;20606;-91
2022/04/04 00:19:51;;;;;;;6.23;4.53;;;;;;;;;;5115733;28;20200;-91
2022/04/04 00:22:19;;;;;;;9.03;5.40;;;;;;;;;;5114759;28;20245;-91
2022/04/04 00:24:46;;;;;;;7.33;5.27;;;;;;;;;;5112952;28;20231;-91
2022/04/04 00:27:13;;;;;;;7.73;4.90;;;;;;;;;;5113314;28;20731;-91
2022/04/04 00:29:42;;;;;;;7.80;4.87;;;;;;;;;;5115229;28;20229;-91
2022/04/04 00:32:10;;;;;;;9.47;6.03;;;;;;;;;;5116170;28;20249;-91
2022/04/04 00:34:37;;;;;;;8.70;6.50;;;;;;;;;;5112791;28;20216;-91
2022/04/04 00:37:05;;;;;;;7.23;5.60;;;;;;;;;;5112949;28;20207;-91
2022/04/04 00:39:32;;;;;;;8.67;5.87;;;;;;;;;;5116048;28;20512;-91
2022/04/04 00:41:59;;;;;;;7.60;5.33;;;;;;;;;;5114915;28;20195;-92
2022/04/04 00:44:26;;;;;;;5.67;4.53;;;;;;;;;;5112398;28;20222;-91
2022/04/04 00:46:56;;;;;;;8.30;5.67;;;;;;;;;;5112430;28;20264;-91
2022/04/04 00:49:23;;;;;;;5.77;4.53;;;;;;;;;;5107709;28;20249;-91
2022/04/04 00:51:51;;;;;;;9.33;5.57;;;;;;;;;;5111589;28;20735;-91
2022/04/04 00:54:18;;;;;;;7.27;4.37;;;;;;;;;;5112395;28;20248;-91
2022/04/04 00:56:46;;;;;;;8.77;5.20;;;;;;;;;;5112347;28;20262;-91
2022/04/04 00:59:17;;;;;;;8.27;5.17;;;;;;;;;;5111805;28;20196;-91
2022/04/04 01:01:46;;;;;;;7.03;5.13;;;;;;;;;;5115646;27;20613;-92
2022/04/04 01:04:16;;;;;;;5.50;4.67;;;;;;;;;;5111242;28;20196;-91
2022/04/04 01:06:44;;;;;;;6.17;4.53;;;;;;;;;;5110921;28;20284;-91
2022/04/04 01:09:14;;;;;;;6.50;4.73;;;;;;;;;;5111425;28;20204;-91
2022/04/04 01:11:56;;;;;;;7.93;5.23;;;;;;;;;;5110999;28;20261;-92
2022/04/04 01:14:23;;;;;;;9.57;5.13;;;;;;;;;;5111083;28;20249;-92
2022/04/04 01:16:50;;;;;;;7.23;4.90;;;;;;;;;;5111420;28;20268;-91
2022/04/04 01:19:19;;;;;;;7.00;5.23;;;;;;;;;;5111169;28;20218;-91
2022/04/04 01:21:47;;;;;;;10.23;5.47;;;;;;;;;;5110487;28;20238;-91
2022/04/04 01:24:16;;;;;;;5.80;4.80;;;;;;;;;;5111349;28;20211;-91
2022/04/04 01:26:46;;;;;;;6.23;4.73;;;;;;;;;;5105347;28;20232;-91
2022/04/04 01:29:14;;;;;;;6.53;4.70;;;;;;;;;;5103581;28;20253;-91
2022/04/04 01:31:41;;;;;;;7.23;5.07;;;;;;;;;;5111373;28;20265;-91
2022/04/04 01:34:09;;;;;;;8.97;5.20;;;;;;;;;;5111628;28;20203;-91
2022/04/04 01:36:36;;;;;;;7.13;4.70;;;;;;;;;;5111590;28;20234;-92
2022/04/04 01:39:03;;;;;;;7.27;4.77;;;;;;;;;;5112572;28;20212;-91
2022/04/04 01:41:32;;;;;;;9.20;5.50;;;;;;;;;;5111649;28;20208;-91
2022/04/04 01:43:59;;;;;;;8.93;5.03;;;;;;;;;;5110970;28;20241;-92
2022/04/04 01:46:27;;;;;;;7.93;5.77;;;;;;;;;;5108282;28;20227;-91
2022/04/04 01:48:55;;;;;;;7.80;4.13;;;;;;;;;;5111540;28;20200;-91
2022/04/04 01:51:23;;;;;;;5.17;4.17;;;;;;;;;;5111645;28;20277;-91
2022/04/04 01:53:50;;;;;;;9.03;5.27;;;;;;;;;;5109869;28;20208;-91
2022/04/04 01:56:18;;;;;;;6.40;4.77;;;;;;;;;;5112083;28;20227;-91
2022/04/04 01:58:47;;;;;;;8.17;4.93;;;;;;;;;;5112675;28;20200;-91
2022/04/04 02:01:16;;;;;;;5.20;4.33;;;;;;;;;;5106426;28;20659;-91
2022/04/04 02:03:45;;;;;;;5.23;4.20;;;;;;;;;;5111272;28;20196;-91
2022/04/04 02:06:13;;;;;;;6.80;4.63;;;;;;;;;;5112210;28;20628;-92
2022/04/04 02:08:41;;;;;;;5.70;4.00;;;;;;;;;;5112189;28;20203;-93
2022/04/04 02:11:16;;;;;;;7.30;4.73;;;;;;;;;;5111705;28;20241;-91
2022/04/04 02:13:44;;;;;;;7.30;4.53;;;;;;;;;;5112248;28;20268;-92
2022/04/04 02:16:13;;;;;;;5.03;4.17;;;;;;;;;;5091348;28;20244;-91
2022/04/04 02:18:41;;;;;;;6.63;4.77;;;;;;;;;;5103447;28;20254;-91
2022/04/04 02:21:09;;;;;;;5.97;3.97;;;;;;;;;;5111126;28;20188;-92
2022/04/04 02:23:37;;;;;;;7.27;4.73;;;;;;;;;;5112078;28;20222;-92
2022/04/04 02:26:04;;;;;;;5.37;4.53;;;;;;;;;;5111129;28;20231;-91
2022/04/04 02:28:32;;;;;;;6.23;4.53;;;;;;;;;;5112179;28;20264;-92
2022/04/04 02:30:59;;;;;;;8.40;4.57;;;;;;;;;;5109250;28;20249;-92
2022/04/04 02:33:28;;;;;;;6.37;4.67;;;;;;;;;;5114294;28;20200;-91
2022/04/04 02:35:56;;;;;;;6.57;4.83;;;;;;;;;;5108421;28;20220;-92
2022/04/04 02:38:25;;;;;;;5.97;4.60;;;;;;;;;;5116640;28;20211;-92
2022/04/04 02:40:52;;;;;;;5.60;4.10;;;;;;;;;;5116900;28;20203;-92
2022/04/04 02:43:20;;;;;;;5.60;4.07;;;;;;;;;;5114835;28;20203;-91
2022/04/04 02:45:47;;;;;;;4.97;4.07;;;;;;;;;;5108171;28;20250;-91
2022/04/04 02:48:15;;;;;;;5.00;3.70;;;;;;;;;;5116459;28;20208;-90
2022/04/04 02:50:44;;;;;;;4.90;3.77;;;;;;;;;;5116704;28;20297;-93
2022/04/04 02:53:11;;;;;;;4.17;3.57;;;;;;;;;;5110553;28;20258;-92
2022/04/04 02:58:24;;;;;;;5.67;3.50;;;;;;;;;;5116529;28;20215;-90
2022/04/04 03:00:51;;;;;;;4.40;4.00;;;;;;;;;;5118828;28;20234;-90
2022/04/04 03:03:19;;;;;;;5.70;4.30;;;;;;;;;;5116081;28;20650;-92
2022/04/04 03:05:47;;;;;;;5.87;4.40;;;;;;;;;;5118012;28;20219;-89
2022/04/04 03:08:15;;;;;;;7.67;4.80;;;;;;;;;;5106699;28;20208;-92
2022/04/04 03:10:42;;;;;;;5.17;4.10;;;;;;;;;;5117734;28;20253;-92
2022/04/04 03:13:10;;;;;;;7.93;4.73;;;;;;;;;;5096227;28;20250;-91
2022/04/04 03:15:37;;;;;;;7.53;5.23;;;;;;;;;;5100025;28;20232;-91
2022/04/04 03:18:06;;;;;;;7.70;4.53;;;;;;;;;;5108433;28;20228;-92
2022/04/04 03:20:33;;;;;;;6.57;5.03;;;;;;;;;;5116530;28;20196;-91
2022/04/04 03:23:03;;;;;;;6.23;3.90;;;;;;;;;;5118863;28;20219;-92
2022/04/04 03:25:30;;;;;;;4.20;3.63;;;;;;;;;;5112087;28;20284;-92
2022/04/04 03:27:58;;;;;;;4.93;3.90;;;;;;;;;;5114237;28;20200;-91
2022/04/04 03:30:26;;;;;;;8.23;4.47;;;;;;;;;;5115508;28;20210;-91
2022/04/04 03:32:54;;;;;;;8.40;4.93;;;;;;;;;;5102062;28;20200;-93
2022/04/04 03:35:22;;;;;;;7.40;4.90;;;;;;;;;;5108606;28;20249;-93
2022/04/04 03:37:51;;;;;;;6.53;4.30;;;;;;;;;;5116250;28;20207;-91
2022/04/04 03:40:20;;;;;;;5.97;4.50;;;;;;;;;;5107897;28;20648;-92
2022/04/04 03:42:48;;;;;;;5.83;4.83;;;;;;;;;;5115465;28;20727;-92
2022/04/04 03:45:26;;;;;;;6.70;3.83;;;;;;;;;;5116161;28;20280;-92
2022/04/04 03:47:53;;;;;;;6.87;4.07;;;;;;;;;;5115859;28;20256;-92
2022/04/04 03:50:21;;;;;;;7.90;4.37;;;;;;;;;;5108619;28;20197;-92
2022/04/04 03:52:51;;;;;;;5.10;3.60;;;;;;;;;;5107088;28;20358;-92
2022/04/04 03:55:21;;;;;;;8.40;5.10;;;;;;;;;;5117322;28;20211;-91
2022/04/04 03:57:49;;;;;;;6.10;4.53;;;;;;;;;;5110849;28;20209;-92
2022/04/04 04:00:16;;;;;;;6.10;4.50;;;;;;;;;;5110718;28;20226;-92
2022/04/04 04:02:44;;;;;;;7.63;4.40;;;;;;;;;;5115548;28;20245;-92
2022/04/04 04:05:12;;;;;;;6.60;4.70;;;;;;;;;;5115343;28;20241;-92
2022/04/04 04:07:39;;;;;;;5.93;4.30;;;;;;;;;;5112312;28;20207;-91
2022/04/04 04:10:07;;;;;;;5.83;4.33;;;;;;;;;;5107791;28;20229;-92
2022/04/04 04:12:36;;;;;;;6.83;4.73;;;;;;;;;;5115367;28;20208;-92
2022/04/04 04:15:04;;;;;;;5.53;4.27;;;;;;;;;;5111623;28;20263;-92
2022/04/04 04:17:31;;;;;;;6.70;4.27;;;;;;;;;;5114327;28;20208;-92
2022/04/04 04:22:43;;;;;;;9.27;4.90;;;;;;;;;;5115129;28;20268;-92
2022/04/04 04:25:10;;;;;;;8.93;4.83;;;;;;;;;;5108274;28;20318;-92
2022/04/04 04:27:39;;;;;;;5.77;4.77;;;;;;;;;;5112261;28;20204;-90
2022/04/04 04:30:07;;;;;;;8.43;4.60;;;;;;;;;;5114826;28;20211;-92
2022/04/04 04:32:34;;;;;;;6.10;4.77;;;;;;;;;;5102763;28;20220;-92
2022/04/04 04:35:02;;;;;;;4.90;4.20;;;;;;;;;;5108046;28;20227;-92
2022/04/04 04:37:29;;;;;;;7.63;4.77;;;;;;;;;;5113774;28;20770;-92
2022/04/04 04:39:56;;;;;;;6.47;3.87;;;;;;;;;;5113694;28;20537;-91
2022/04/04 04:42:24;;;;;;;5.10;3.60;;;;;;;;;;5111734;28;20268;-90
2022/04/04 04:44:53;;;;;;;6.60;4.47;;;;;;;;;;5105109;28;20247;-92
2022/04/04 04:47:20;;;;;;;6.07;4.43;;;;;;;;;;5112715;28;20253;-92
2022/04/04 04:49:48;;;;;;;7.13;5.17;;;;;;;;;;5112608;28;20280;-92
2022/04/04 04:52:16;;;;;;;8.40;5.17;;;;;;;;;;5104724;28;20269;-92
2022/04/04 04:54:44;;;;;;;7.60;5.37;;;;;;;;;;5106509;28;20276;-91
2022/04/04 04:57:11;;;;;;;6.97;4.97;;;;;;;;;;5120084;27;20192;-92
2022/04/04 04:59:38;;;;;;;7.87;5.37;;;;;;;;;;5130019;27;20204;-91
2022/04/04 05:02:07;;;;;;;6.80;4.50;;;;;;;;;;5112223;28;20222;-91
2022/04/04 05:04:34;;;;;;;7.63;4.60;;;;;;;;;;5113295;27;20593;-91
2022/04/04 05:07:02;;;;;;;5.30;4.10;;;;;;;;;;5113567;27;20272;-92
2022/04/04 05:09:29;;;;;;;7.83;5.20;;;;;;;;;;5113713;28;20257;-91
2022/04/04 05:11:56;;;;;;;6.50;5.03;;;;;;;;;;5107358;28;20687;-91
2022/04/04 05:14:24;;;;;;;6.57;4.93;;;;;;;;;;5108453;28;20208;-92
2022/04/04 05:16:53;;;;;;;8.53;5.27;;;;;;;;;;5113182;28;20200;-92
2022/04/04 05:19:22;;;;;;;6.80;4.57;;;;;;;;;;5110741;28;20590;-92
2022/04/04 05:21:59;;;;;;;8.20;5.10;;;;;;;;;;5110419;28;20226;-91
2022/04/04 05:24:29;;;;;;;7.27;5.10;;;;;;;;;;5113318;28;20200;-91
2022/04/04 05:26:56;;;;;;;5.70;4.53;;;;;;;;;;5113624;28;20208;-92
2022/04/04 05:29:26;;;;;;;7.83;4.40;;;;;;;;;;5109314;28;20252;-92
2022/04/04 05:31:55;;;;;;;7.93;5.37;;;;;;;;;;5112516;28;20231;-91
2022/04/04 05:34:25;;;;;;;11.77;8.10;;;;;;;;;;5116899;28;20204;-91
2022/04/04 05:36:52;;;;;;;6.20;4.80;;;;;;;;;;5113090;28;20192;-92
2022/04/04 05:39:20;;;;;;;8.63;6.07;;;;;;;;;;5108247;28;20203;-90
2022/04/04 05:41:47;;;;;;;8.20;5.60;;;;;;;;;;5114308;27;20249;-92
2022/04/04 05:44:15;;;;;;;7.30;5.30;;;;;;;;;;5115678;28;20215;-91
2022/04/04 05:46:43;;;;;;;8.13;5.70;;;;;;;;;;5102467;28;20224;-92
2022/04/04 05:49:10;;;;;;;8.27;5.57;;;;;;;;;;5103761;28;20208;-91
2022/04/04 05:51:40;;;;;;;6.43;5.63;;;;;;;;;;5116769;28;20269;-91
2022/04/04 05:54:09;;;;;;;7.70;6.30;;;;;;;;;;5112624;28;20557;-91
2022/04/04 05:56:45;;;;;;;6.90;6.20;;;;;;;;;;5108543;28;20226;-91
2022/04/04 05:59:13;;;;;;;9.10;6.37;;;;;;;;;;5112653;28;20199;-92
2022/04/04 06:01:40;;;;;;;9.03;5.93;;;;;;;;;;5112319;28;20727;-91
2022/04/04 06:04:07;;;;;;;9.73;5.60;;;;;;;;;;5108850;28;20272;-92
2022/04/04 06:06:35;;;;;;;8.97;6.20;;;;;;;;;;5100283;28;20215;-93
2022/04/04 06:09:04;;;;;;;8.00;5.90;;;;;;;;;;5113115;28;20195;-92
2022/04/04 06:11:31;;;;;;;11.23;5.57;;;;;;;;;;5116438;28;20224;-92
2022/04/04 06:13:59;;;;;;;8.97;6.20;;;;;;;;;;5113412;28;20253;-93
2022/04/04 06:16:26;;;;;;;8.67;6.30;;;;;;;;;;5114475;28;20228;-93
2022/04/04 06:18:54;;;;;;;8.73;6.20;;;;;;;;;;5117112;28;20292;-93
2022/04/04 06:21:21;;;;;;;9.33;6.23;;;;;;;;;;5117831;28;20233;-92
2022/04/04 06:23:48;;;;;;;10.00;6.47;;;;;;;;;;5115383;28;20204;-93
2022/04/04 06:26:17;;;;;;;8.83;6.33;;;;;;;;;;5117265;28;20231;-93
2022/04/04 06:28:44;;;;;;;10.27;6.17;;;;;;;;;;5118438;28;20670;-94
2022/04/04 06:31:12;;;;;;;9.27;6.17;;;;;;;;;;5118321;28;20200;-93
2022/04/04 06:33:40;;;;;;;8.43;5.93;;;;;;;;;;5118031;28;20257;-93
2022/04/04 06:36:07;;;;;;;10.27;7.00;;;;;;;;;;5118970;28;20247;-94
2022/04/04 06:38:35;;;;;;;9.60;7.17;;;;;;;;;;5120524;28;20200;-93
2022/04/04 06:41:02;;;;;;;11.10;7.63;;;;;;;;;;5120830;28;20227;-94
2022/04/04 06:43:32;;;;;;;8.33;6.90;;;;;;;;;;5123378;28;20196;-93
2022/04/04 06:46:02;;;;;;;8.47;6.30;;;;;;;;;;5128783;28;20224;-93
2022/04/04 06:48:31;;;;;;;11.60;7.77;;;;;;;;;;5126867;28;20196;-93
2022/04/04 07:12:20;;;;;;;12.30;7.70;;;;;;;;;;4870037;29;20220;-94
2022/04/04 07:14:47;;;;;;;9.50;7.00;;;;;;;;;;4892761;28;20235;-93
2022/04/04 07:17:14;;;;;;;11.37;6.57;;;;;;;;;;5069657;28;20200;-93
2022/04/04 07:19:42;;;;;;;8.57;6.63;;;;;;;;;;5113620;28;20192;-93
2022/04/04 07:22:10;;;;;;;6.93;6.00;;;;;;;;;;5115141;28;20192;-93
2022/04/04 07:24:38;;;;;;;8.83;6.77;;;;;;;;;;5115525;28;20200;-94
2022/04/04 07:27:05;;;;;;;10.17;7.00;;;;;;;;;;5115579;28;20208;-93
2022/04/04 07:29:34;;;;;;;7.50;6.20;;;;;;;;;;5114712;28;20291;-93
2022/04/04 07:32:01;;;;;;;6.60;5.80;;;;;;;;;;5116013;28;20235;-93
2022/04/04 07:34:28;;;;;;;9.30;6.50;;;;;;;;;;5115945;28;20261;-93
2022/04/04 07:36:56;;;;;;;8.67;5.87;;;;;;;;;;5114879;28;20215;-94
2022/04/04 07:39:23;;;;;;;7.30;5.83;;;;;;;;;;5115255;28;20204;-93
2022/04/04 07:41:51;;;;;;;6.67;5.90;;;;;;;;;;5115191;28;20292;-93
2022/04/04 07:44:18;;;;;;;7.00;5.83;;;;;;;;;;5114603;28;20277;-93
2022/04/04 07:46:47;;;;;;;7.47;5.90;;;;;;;;;;5114630;28;20212;-93
2022/04/04 07:49:14;;;;;;;6.90;5.40;;;;;;;;;;5114740;28;20660;-93
2022/04/04 07:51:41;;;;;;;8.60;6.40;;;;;;;;;;5114595;28;20215;-93
2022/04/04 07:54:09;;;;;;;8.87;5.77;;;;;;;;;;5114840;28;20215;-92
2022/04/04 07:56:36;;;;;;;7.97;5.87;;;;;;;;;;5114232;28;20231;-92
2022/04/04 07:59:04;;;;;;;7.33;5.47;;;;;;;;;;5114226;28;20677;-92
2022/04/04 08:01:31;;;;;;;6.90;5.93;;;;;;;;;;5114529;28;20400;-92
2022/04/04 08:04:00;;;;;;;6.77;5.27;;;;;;;;;;5114455;28;20268;-92
2022/04/04 08:06:27;;;;;;;7.43;5.47;;;;;;;;;;5111250;28;20219;-92
2022/04/04 08:08:54;;;;;;;7.87;5.30;;;;;;;;;;5113987;28;20204;-92
2022/04/04 08:11:22;;;;;;;5.67;4.90;;;;;;;;;;5114268;28;20665;-91
2022/04/04 08:13:49;;;;;;;5.93;4.63;;;;;;;;;;5114030;28;20224;-92
2022/04/04 08:16:16;;;;;;;5.77;5.27;;;;;;;;;;5109024;28;20227;-91
2022/04/04 08:18:43;;;;;;;6.07;5.30;;;;;;;;;;5113588;28;20260;-91
2022/04/04 08:21:15;;;;;;;5.93;5.33;;;;;;;;;;5113778;28;20577;-91
2022/04/04 08:23:42;;;;;;;8.67;5.40;;;;;;;;;;5106466;28;20292;-91
2022/04/04 08:26:10;;;;;;;7.67;5.17;;;;;;;;;;5105807;28;20246;-91
2022/04/04 08:28:38;;;;;;;8.37;5.40;;;;;;;;;;5113859;28;20200;-91
2022/04/04 08:31:05;;;;;;;8.63;5.13;;;;;;;;;;5113936;28;20216;-91
2022/04/04 08:33:32;;;;;;;6.47;4.80;;;;;;;;;;5103319;28;20234;-91
2022/04/04 08:36:03;;;;;;;5.87;5.00;;;;;;;;;;5111874;28;20746;-90
2022/04/04 08:38:33;;;;;;;5.50;5.00;;;;;;;;;;5113468;28;20207;-90
2022/04/04 08:41:01;;;;;;;7.33;5.00;;;;;;;;;;5113676;28;20207;-91
2022/04/04 08:43:29;;;;;;;7.00;4.80;;;;;;;;;;5105240;28;20199;-90
2022/04/04 08:45:56;;;;;;;6.67;4.90;;;;;;;;;;5112731;28;20220;-91
2022/04/04 08:48:24;;;;;;;5.30;4.73;;;;;;;;;;5113814;28;20261;-90
2022/04/04 08:50:51;;;;;;;5.20;4.67;;;;;;;;;;5113318;28;20215;-89
2022/04/04 08:53:18;;;;;;;8.37;4.90;;;;;;;;;;5106063;28;20690;-91
2022/04/04 08:55:47;;;;;;;6.33;5.20;;;;;;;;;;5109406;28;20268;-91
2022/04/04 08:58:15;;;;;;;7.23;4.87;;;;;;;;;;5113579;28;20208;-91
2022/04/04 09:00:42;;;;;;;5.80;5.20;;;;;;;;;;5112185;28;20261;-91
2022/04/04 09:03:10;;;;;;;8.67;5.30;;;;;;;;;;5108904;28;20204;-89
2022/04/04 09:05:51;;;;;;;8.43;6.60;;;;;;;;;;5112360;28;20216;-90
2022/04/04 09:08:20;;;;;;;7.50;5.83;;;;;;;;;;5093157;28;20196;-90
2022/04/04 09:10:49;;;;;;;8.33;5.07;;;;;;;;;;5095689;28;20205;-89
2022/04/04 09:13:17;;;;;;;9.13;5.30;;;;;;;;;;5109046;28;20216;-90
2022/04/04 09:15:50;;;;;;;6.50;5.63;;;;;;;;;;5112749;28;20720;-90
2022/04/04 09:18:18;;;;;;;7.10;5.00;;;;;;;;;;5111134;28;20203;-91
2022/04/04 09:20:51;;;;;;;6.10;5.30;;;;;;;;;;5107346;28;20249;-90
2022/04/04 09:23:19;;;;;;;8.30;4.83;;;;;;;;;;5112658;28;20204;-91
2022/04/04 09:25:46;;;;;;;6.57;5.30;;;;;;;;;;5112770;28;20231;-90
2022/04/04 09:28:16;;;;;;;5.77;4.63;;;;;;;;;;5112422;28;20279;-91
2022/04/04 09:30:43;;;;;;;4.93;4.23;;;;;;;;;;5108942;28;20229;-90
2022/04/04 09:33:13;;;;;;;5.00;4.60;;;;;;;;;;5112550;28;20223;-90
2022/04/04 09:35:47;;;;;;;6.80;4.70;;;;;;;;;;5112741;28;20280;-90
2022/04/04 09:38:15;;;;;;;5.63;4.53;;;;;;;;;;5106081;28;20214;-90
2022/04/04 09:40:43;;;;;;;5.57;4.83;;;;;;;;;;5112264;28;20192;-90
2022/04/04 09:43:10;;;;;;;6.00;4.87;;;;;;;;;;5113067;28;20239;-91
2022/04/04 09:45:41;;;;;;;6.03;4.83;;;;;;;;;;5112595;28;20288;-90
2022/04/04 09:48:09;;;;;;;5.03;4.53;;;;;;;;;;5112272;28;20200;-90
2022/04/04 09:50:38;;;;;;;4.30;3.90;;;;;;;;;;5112874;28;20202;-92
2022/04/04 09:53:07;;;;;;;5.67;4.20;;;;;;;;;;5112543;28;20219;-90
2022/04/04 09:55:36;;;;;;;3.57;3.27;;;;;;;;;;5112233;28;20246;-91
2022/04/04 09:58:17;;;;;;;3.53;3.23;;;;;;;;;;5112120;28;20237;-90
2022/04/04 10:00:48;;;;;;;5.20;3.80;;;;;;;;;;5112106;28;20581;-89
2022/04/04 10:03:17;;;;;;;3.97;3.00;;;;;;;;;;5111978;28;20192;-91
2022/04/04 10:05:45;;;;;;;3.77;3.37;;;;;;;;;;5112031;28;20310;-90
2022/04/04 10:08:15;;;;;;;5.27;3.63;;;;;;;;;;5112419;28;20196;-90
2022/04/04 10:10:42;;;;;;;5.83;4.07;;;;;;;;;;5112573;28;20200;-90
2022/04/04 10:13:11;;;;;;;6.80;4.00;;;;;;;;;;5111216;28;20268;-90
2022/04/04 10:15:38;;;;;;;3.63;3.23;;;;;;;;;;5111903;28;20227;-90
2022/04/04 10:18:08;;;;;;;4.53;3.37;;;;;;;;;;5112105;28;20262;-90
2022/04/04 10:20:36;;;;;;;4.43;4.00;;;;;;;;;;5109342;28;20207;-90
2022/04/04 10:23:05;;;;;;;4.50;4.07;;;;;;;;;;5112057;28;20208;-90
2022/04/04 10:25:34;;;;;;;4.57;3.63;;;;;;;;;;5111491;28;20231;-89
2022/04/04 10:28:01;;;;;;;3.73;3.17;;;;;;;;;;5112363;28;20217;-90
2022/04/04 10:30:32;;;;;;;4.30;3.83;;;;;;;;;;5105698;28;20200;-89
2022/04/04 10:33:00;;;;;;;3.23;2.90;;;;;;;;;;5104258;28;20224;-88
2022/04/04 10:35:30;;;;;;;3.70;3.37;;;;;;;;;;5111744;28;20220;-90
2022/04/04 10:37:59;;;;;;;3.93;3.07;;;;;;;;;;5107229;28;20211;-89
2022/04/04 10:40:28;;;;;;;4.80;3.10;;;;;;;;;;5100862;28;20292;-89
2022/04/04 10:43:02;;;;;;;4.77;3.93;;;;;;;;;;5112619;28;20220;-89
2022/04/04 10:45:31;;;;;;;7.07;3.97;;;;;;;;;;5110965;28;20264;-88
2022/04/04 10:48:06;;;;;;;6.13;3.37;;;;;;;;;;5103585;28;20204;-90
2022/04/04 10:50:35;;;;;;;4.43;3.30;;;;;;;;;;5112487;28;20282;-89
2022/04/04 10:53:04;;;;;;;5.13;3.67;;;;;;;;;;5112476;28;20220;-90
2022/04/04 10:55:49;;;;;;;5.43;4.07;;;;;;;;;;5107704;28;20587;-90
2022/04/04 10:58:23;;;;;;;6.20;4.63;;;;;;;;;;5100207;28;20236;-89
2022/04/04 11:01:01;;;;;;;3.67;3.37;;;;;;;;;;5122102;28;20211;-89
2022/04/04 11:03:30;;;;;;;6.80;4.90;;;;;;;;;;5115917;28;20200;-90
2022/04/04 11:08:59;;;;;;;4.87;4.43;;;;;;;;;;5112093;28;20196;-90
2022/04/04 11:11:41;;;;;;;5.13;3.97;;;;;;;;;;5118429;28;20208;-89
2022/04/04 11:14:09;;;;;;;5.33;4.43;;;;;;;;;;5107337;28;20855;-89
2022/04/04 11:16:51;;;;;;;4.03;3.53;;;;;;;;;;5114581;28;20679;-90
2022/04/04 11:19:19;;;;;;;4.63;3.87;;;;;;;;;;5114371;28;20731;-89
2022/04/04 11:21:47;;;;;;;4.07;2.43;;;;;;;;;;5112049;28;20266;-90
2022/04/04 11:24:17;;;;;;;4.83;4.23;;;;;;;;;;5109455;28;20273;-89
2022/04/04 11:26:44;;;;;;;5.50;4.73;;;;;;;;;;5114736;28;20675;-89
2022/04/04 11:29:15;;;;;;;6.00;4.60;;;;;;;;;;5114703;28;20637;-90
2022/04/04 11:31:47;;;;;;;11.87;5.03;;;;;;;;;;5105727;28;20211;-89
2022/04/04 11:34:15;;;;;;;7.80;4.97;;;;;;;;;;5106519;28;20216;-90
2022/04/04 11:36:43;;;;;;;5.23;4.63;;;;;;;;;;5115549;27;20227;-89
2022/04/04 11:39:12;;;;;;;10.00;4.97;;;;;;;;;;5112377;27;20646;-90
2022/04/04 11:41:46;;;;;;;5.63;4.73;;;;;;;;;;5114051;28;20208;-90
2022/04/04 11:44:23;;;;;;;9.20;4.70;;;;;;;;;;5114602;28;20295;-90
2022/04/04 11:47:02;;;;;;;4.77;4.27;;;;;;;;;;5117808;27;20235;-90
2022/04/04 11:49:33;;;;;;;4.97;4.53;;;;;;;;;;5104700;27;20286;-89
2022/04/04 11:52:04;;;;;;;4.73;4.00;;;;;;;;;;5115540;27;20196;-90
2022/04/04 11:54:40;;;;;;;3.60;3.07;;;;;;;;;;5114258;28;20293;-91
2022/04/04 11:57:07;;;;;;;4.70;4.30;;;;;;;;;;5111737;28;20219;-89
2022/04/04 11:59:36;;;;;;;5.47;4.97;;;;;;;;;;5114565;28;20208;-90
2022/04/04 12:02:08;;;;;;;6.13;4.73;;;;;;;;;;5114801;28;20204;-90
2022/04/04 12:04:36;;;;;;;4.93;4.47;;;;;;;;;;5110178;28;20203;-91
2022/04/04 12:07:04;;;;;;;5.17;4.03;;;;;;;;;;5110706;28;20208;-89
2022/04/04 12:09:33;;;;;;;4.37;3.90;;;;;;;;;;5125992;27;20214;-90
2022/04/04 12:12:05;;;;;;;5.90;4.30;;;;;;;;;;5125361;27;20538;-91
2022/04/04 12:14:33;;;;;;;4.37;3.60;;;;;;;;;;5113170;28;20212;-90
2022/04/04 12:17:01;;;;;;;4.50;3.90;;;;;;;;;;5113980;28;20291;-91
2022/04/04 12:19:28;;;;;;;3.83;3.43;;;;;;;;;;5111495;28;20208;-91
2022/04/04 12:21:57;;;;;;;4.67;4.27;;;;;;;;;;5100084;28;20204;-89
2022/04/04 12:27:15;;;;;;;3.90;3.27;;;;;;;;;;5105015;28;20182;-90
2022/04/04 12:29:43;;;;;;;4.03;3.70;;;;;;;;;;5113908;28;20250;-91
2022/04/04 12:32:17;;;;;;;4.20;3.80;;;;;;;;;;5109410;28;20658;-90
2022/04/04 12:34:58;;;;;;;5.20;4.30;;;;;;;;;;5110710;28;20314;-91
2022/04/04 12:37:35;;;;;;;4.53;3.87;;;;;;;;;;5114173;28;20276;-90
2022/04/04 12:40:22;;;;;;;4.87;3.90;;;;;;;;;;5108385;28;20207;-89
2022/04/04 12:42:52;;;;;;;6.23;4.33;;;;;;;;;;5105001;28;20206;-89
2022/04/04 12:45:20;;;;;;;3.70;3.40;;;;;;;;;;5113468;28;20220;-90
2022/04/04 12:47:54;;;;;;;4.20;3.37;;;;;;;;;;5113832;28;20215;-90
2022/04/04 12:50:22;;;;;;;4.37;3.90;;;;;;;;;;5108047;28;20290;-90
2022/04/04 12:52:56;;;;;;;3.73;3.43;;;;;;;;;;5112738;28;20216;-90
2022/04/04 12:55:24;;;;;;;4.43;3.43;;;;;;;;;;5113237;28;20235;-89
2022/04/04 12:57:52;;;;;;;5.30;4.57;;;;;;;;;;5108729;28;20534;-90
2022/04/04 13:00:27;;;;;;;5.47;4.13;;;;;;;;;;5110518;28;20244;-90
2022/04/04 13:02:55;;;;;;;4.97;2.80;;;;;;;;;;5122126;27;20209;-91
2022/04/04 13:05:25;;;;;;;2.70;2.50;;;;;;;;;;5131908;27;20218;-91
2022/04/04 13:07:53;;;;;;;2.00;1.90;;;;;;;;;;5102832;28;20203;-92
2022/04/04 13:10:23;;;;;;;3.97;3.17;;;;;;;;;;5113281;28;20199;-91
2022/04/04 13:13:08;;;;;;;4.67;4.17;;;;;;;;;;5113172;28;20330;-90
2022/04/04 13:15:36;;;;;;;6.33;3.83;;;;;;;;;;5109094;28;20320;-90
2022/04/04 13:18:04;;;;;;;5.40;3.87;;;;;;;;;;5103664;28;20766;-91
2022/04/04 13:20:31;;;;;;;4.00;3.60;;;;;;;;;;5112582;28;20200;-90
2022/04/04 13:22:59;;;;;;;4.13;3.73;;;;;;;;;;5112477;28;20612;-91
2022/04/04 13:25:27;;;;;;;4.83;4.30;;;;;;;;;;5109118;28;20224;-91
2022/04/04 13:27:55;;;;;;;4.80;3.60;;;;;;;;;;5112300;28;20593;-91
2022/04/04 13:30:23;;;;;;;5.20;4.37;;;;;;;;;;5112727;28;20262;-91
2022/04/04 13:32:50;;;;;;;4.57;4.17;;;;;;;;;;5112721;28;20291;-90
2022/04/04 13:35:17;;;;;;;3.93;3.60;;;;;;;;;;5107770;28;20224;-90
2022/04/04 13:37:45;;;;;;;6.00;4.30;;;;;;;;;;5110879;28;20829;-92
2022/04/04 13:40:12;;;;;;;5.03;4.53;;;;;;;;;;5112903;28;20200;-91
2022/04/04 13:42:40;;;;;;;3.40;2.77;;;;;;;;;;5110947;28;20606;-91
2022/04/04 13:45:09;;;;;;;4.80;3.87;;;;;;;;;;5103867;28;20224;-92
2022/04/04 13:47:36;;;;;;;5.50;4.33;;;;;;;;;;5112828;28;20212;-90
2022/04/04 13:50:05;;;;;;;4.87;4.07;;;;;;;;;;5112759;28;20215;-92
2022/04/04 13:52:32;;;;;;;3.93;3.53;;;;;;;;;;5108945;28;20226;-90
2022/04/04 13:55:00;;;;;;;5.37;4.53;;;;;;;;;;5105183;28;20276;-91
2022/04/04 13:57:27;;;;;;;5.50;4.90;;;;;;;;;;5112966;28;20208;-91
2022/04/04 13:59:54;;;;;;;5.63;4.57;;;;;;;;;;5111230;28;20733;-90
2022/04/04 14:02:23;;;;;;;4.33;3.93;;;;;;;;;;5100538;28;20204;-91
2022/04/04 14:04:50;;;;;;;4.03;3.57;;;;;;;;;;5111024;28;20212;-91
2022/04/04 14:07:18;;;;;;;5.20;4.10;;;;;;;;;;5112580;28;20235;-92
2022/04/04 14:09:45;;;;;;;4.13;3.47;;;;;;;;;;5104437;28;20246;-92
2022/04/04 14:12:13;;;;;;;2.60;2.27;;;;;;;;;;5111225;28;20261;-91
2022/04/04 14:14:40;;;;;;;6.70;4.53;;;;;;;;;;5111989;28;20220;-91
2022/04/04 14:17:07;;;;;;;5.07;4.53;;;;;;;;;;5112551;28;20204;-91
2022/04/04 14:19:36;;;;;;;4.70;4.30;;;;;;;;;;5096641;28;20218;-91
2022/04/04 14:22:04;;;;;;;5.27;4.07;;;;;;;;;;5111268;28;20202;-91
2022/04/04 14:24:31;;;;;;;4.57;3.77;;;;;;;;;;5112023;28;20196;-90
2022/04/04 14:26:58;;;;;;;3.10;2.67;;;;;;;;;;5112207;28;20211;-92
2022/04/04 14:29:26;;;;;;;4.40;4.00;;;;;;;;;;5112595;28;20204;-92
2022/04/04 14:31:54;;;;;;;5.93;4.33;;;;;;;;;;5115642;28;20195;-91
2022/04/04 14:34:21;;;;;;;5.93;4.57;;;;;;;;;;5113573;28;20674;-90
2022/04/04 14:36:51;;;;;;;5.90;4.43;;;;;;;;;;5112698;28;20246;-91
2022/04/04 14:39:18;;;;;;;5.53;4.23;;;;;;;;;;5115953;28;20196;-92
2022/04/04 14:41:45;;;;;;;6.83;4.60;;;;;;;;;;5116369;28;20210;-91
2022/04/04 14:44:13;;;;;;;5.17;4.17;;;;;;;;;;5112068;28;20260;-91
2022/04/04 14:46:51;;;;;;;5.13;4.17;;;;;;;;;;5110395;28;20227;-90
2022/04/04 14:49:18;;;;;;;4.50;3.77;;;;;;;;;;5109751;28;20249;-91
2022/04/04 14:51:45;;;;;;;4.33;3.93;;;;;;;;;;5109114;28;20204;-91
2022/04/04 14:54:14;;;;;;;5.13;4.17;;;;;;;;;;5115330;28;20677;-91
2022/04/04 14:56:43;;;;;;;6.17;4.20;;;;;;;;;;5116136;28;20223;-91
2022/04/04 14:59:10;;;;;;;5.73;4.33;;;;;;;;;;5105578;28;20290;-91
2022/04/04 15:01:43;;;;;;;4.07;3.67;;;;;;;;;;5114664;28;20235;-92
2022/04/04 15:04:10;;;;;;;5.33;4.53;;;;;;;;;;5115034;28;20261;-90
2022/04/04 15:06:37;;;;;;;4.17;3.77;;;;;;;;;;5115897;28;20232;-92
2022/04/04 15:09:05;;;;;;;5.23;4.47;;;;;;;;;;5112930;28;21227;-90
2022/04/04 15:11:35;;;;;;;4.87;4.30;;;;;;;;;;5114831;28;20208;-91
2022/04/04 15:14:03;;;;;;;8.17;4.93;;;;;;;;;;5114315;28;20203;-91
2022/04/04 15:16:30;;;;;;;5.27;4.77;;;;;;;;;;5106577;28;20627;-91
2022/04/04 15:18:59;;;;;;;4.90;4.40;;;;;;;;;;5105775;28;20626;-89
2022/04/04 15:21:26;;;;;;;6.73;4.67;;;;;;;;;;5105778;28;20738;-89
2022/04/04 15:23:54;;;;;;;5.70;4.57;;;;;;;;;;5113864;28;20287;-89